< < Back
Terminal Aerodrome Forecast


Current Version              Previous Versions:   1  2  3  4  5  6  7  8  9  

Terminal Aerodrome Forecast

238
FTUS44 KMOB 220500
TAFMOB
TAF
KMOB 220538Z 2206/2306 26003KT P6SM SCT250
      TEMPO 2210/2212 5SM BR
     FM221500 34004KT P6SM SCT035
     FM221900 23007KT P6SM VCTS SCT040CB
     FM230000 25003KT P6SM FEW040 SCT250=



Latest METAR

042
SAUS80 KWBC 221900
MTRMOB
METAR KMOB 221856Z 00000KT 10SM BKN050TCU 34/22 A3008 RMK AO2 SLP183 TCU
OHD AND NW T03390222


USA.gov is the U.S. government's official web portal to all federal, state and local government web resources and services.